Rothschild, Wisconsin
Current Conditions -  °F | °C
As of 11:26 AM on Thursday 18 Dec 2014 (Local Time) from KAUW Reporting Station
Overcast Overcast  
Wind Chill: 18°   Ceiling: 1400
Heat Index: 24°   Visibility: 10mi
Dew Point: 18°   Wind: 5mph
Humidity: 77%   Direction: 70°ENE
Pressure: 30.25"   Gusts: NA
Location:  44.89°N, 89.62°W
Report Text: KAUW 181726Z AUTO 07004KT 10SM OVC014 M04/M08 A3025 RMK AO2 T10441078
Loading
Personal Weather Stations






























Interactive Weather Map New forecast layout! Learn more

10-Day Weather Forecast

Advertisements
Track Severe Weather on mobile